createdAt,value
2019-04-16T00:00:23.605Z,59.20
2019-04-16T00:02:54.113Z,59.20
2019-04-16T00:05:28.474Z,59.30
2019-04-16T00:08:27.153Z,59.40
2019-04-16T00:10:56.813Z,59.20
2019-04-16T00:13:30.110Z,59.30
2019-04-16T00:15:58.389Z,59.50
2019-04-16T00:18:25.860Z,59.50
2019-04-16T00:21:09.901Z,59.80
2019-04-16T00:23:54.870Z,60.00
2019-04-16T00:26:26.525Z,60.00
2019-04-16T00:28:51.706Z,60.30
2019-04-16T00:31:19.116Z,61.00
2019-04-16T00:33:46.584Z,60.70
2019-04-16T00:36:15.362Z,60.70
2019-04-16T00:38:43.236Z,60.60
2019-04-16T00:41:10.739Z,60.60
2019-04-16T00:43:38.395Z,60.40
2019-04-16T00:46:08.216Z,60.90
2019-04-16T00:48:35.121Z,60.60
2019-04-16T00:51:02.530Z,60.90
2019-04-16T00:53:29.965Z,61.00
2019-04-16T00:55:57.343Z,61.10
2019-04-16T00:58:24.698Z,61.00
2019-04-16T01:00:52.053Z,61.00
2019-04-16T01:03:19.400Z,60.90
2019-04-16T01:05:46.848Z,60.90
2019-04-16T01:08:14.203Z,61.00
2019-04-16T01:10:41.589Z,61.30
2019-04-16T01:13:09.136Z,61.30
2019-04-16T01:15:36.631Z,61.30
2019-04-16T01:18:04.574Z,61.10
2019-04-16T01:20:33.256Z,61.10
2019-04-16T01:23:00.868Z,61.20
2019-04-16T01:25:28.298Z,61.30
2019-04-16T01:28:00.768Z,61.30
2019-04-16T01:30:38.726Z,61.40
2019-04-16T01:33:31.790Z,61.10
2019-04-16T01:36:06.446Z,61.30
2019-04-16T01:38:42.607Z,61.30
2019-04-16T01:41:12.124Z,61.40
2019-04-16T01:43:39.558Z,61.20
2019-04-16T01:46:06.985Z,61.00
2019-04-16T01:48:38.667Z,61.50
2019-04-16T01:51:03.517Z,61.60
2019-04-16T01:53:30.930Z,61.30
2019-04-16T01:55:58.574Z,61.60
2019-04-16T01:58:26.043Z,61.70
2019-04-16T02:00:53.510Z,61.30
2019-04-16T02:03:20.792Z,61.40
2019-04-16T02:05:48.141Z,61.70
2019-04-16T02:08:15.538Z,61.90
2019-04-16T02:10:42.864Z,62.20
2019-04-16T02:13:14.548Z,61.80
2019-04-16T02:15:39.526Z,62.00
2019-04-16T02:18:07.230Z,62.30
2019-04-16T02:20:38.434Z,62.30
2019-04-16T02:23:03.786Z,62.60
2019-04-16T02:25:31.066Z,62.80
2019-04-16T02:27:58.406Z,62.70
2019-04-16T02:30:25.821Z,63.00
2019-04-16T02:32:53.271Z,64.10
2019-04-16T02:35:20.721Z,64.10
2019-04-16T02:37:48.035Z,64.10
2019-04-16T02:40:18.292Z,64.00
2019-04-16T02:42:44.538Z,64.10
2019-04-16T02:45:12.375Z,63.60
2019-04-16T02:47:42.069Z,63.80
2019-04-16T02:50:12.951Z,63.60
2019-04-16T02:53:11.828Z,63.70
2019-04-16T02:55:53.135Z,63.40
2019-04-16T02:58:33.888Z,63.60
2019-04-16T03:01:20.911Z,63.70
2019-04-16T03:03:56.232Z,63.70
2019-04-16T03:06:22.706Z,63.50
2019-04-16T03:08:50.762Z,63.50
2019-04-16T03:11:18.179Z,64.00
2019-04-16T03:13:46.025Z,63.80
2019-04-16T03:16:38.842Z,63.70
2019-04-16T03:19:10.212Z,63.80
2019-04-16T03:21:37.694Z,64.10
2019-04-16T03:24:07.972Z,64.20
2019-04-16T03:26:34.366Z,64.10
2019-04-16T03:29:01.678Z,64.00
2019-04-16T03:31:29.000Z,64.20
2019-04-16T03:33:56.415Z,64.20
2019-04-16T03:36:26.540Z,64.10
2019-04-16T03:38:53.038Z,64.10
2019-04-16T03:41:20.376Z,64.20
2019-04-16T03:43:47.622Z,64.30
2019-04-16T03:46:14.954Z,64.20
2019-04-16T03:48:42.265Z,64.30
2019-04-16T03:51:09.621Z,64.60
2019-04-16T03:53:36.938Z,64.60
2019-04-16T03:56:04.750Z,64.70
2019-04-16T03:58:32.222Z,64.60
2019-04-16T04:00:59.615Z,64.80
2019-04-16T04:03:27.034Z,65.20
2019-04-16T04:05:55.183Z,65.10
2019-04-16T04:08:22.767Z,64.80
2019-04-16T04:10:50.370Z,65.20
2019-04-16T04:13:18.899Z,65.00
2019-04-16T04:15:47.056Z,65.00
2019-04-16T04:18:14.746Z,65.10
2019-04-16T04:20:42.026Z,64.90
2019-04-16T04:23:09.370Z,65.20
2019-04-16T04:25:37.080Z,65.40
2019-04-16T04:28:04.502Z,65.50
2019-04-16T04:30:31.933Z,65.60
2019-04-16T04:32:59.331Z,65.70
2019-04-16T04:35:26.735Z,66.00
2019-04-16T04:37:54.407Z,66.30
2019-04-16T04:40:21.761Z,66.30
2019-04-16T04:42:49.041Z,66.50
2019-04-16T04:45:16.508Z,66.70
2019-04-16T04:47:43.851Z,67.00
2019-04-16T04:50:11.296Z,66.80
2019-04-16T04:52:38.578Z,67.00
2019-04-16T04:55:06.001Z,67.80
2019-04-16T04:57:33.364Z,67.80
2019-04-16T05:00:00.664Z,67.50
2019-04-16T05:02:28.377Z,67.00
2019-04-16T05:05:10.518Z,66.60
2019-04-16T05:07:37.845Z,66.50
2019-04-16T05:10:07.445Z,66.80
2019-04-16T05:12:34.660Z,66.20
2019-04-16T05:15:03.850Z,66.40
2019-04-16T05:17:31.156Z,66.70
2019-04-16T05:19:58.472Z,66.40
2019-04-16T05:22:25.795Z,66.30
2019-04-16T05:24:53.149Z,67.00
2019-04-16T05:27:20.469Z,66.40
2019-04-16T05:29:48.847Z,66.60
2019-04-16T05:32:17.094Z,66.20
2019-04-16T05:34:44.480Z,66.20
2019-04-16T05:37:12.738Z,66.40
2019-04-16T05:39:40.078Z,66.50
2019-04-16T05:42:07.391Z,66.60
2019-04-16T05:44:34.696Z,66.50
2019-04-16T05:47:02.073Z,66.80
2019-04-16T05:49:29.457Z,66.70
2019-04-16T05:51:56.804Z,66.80
2019-04-16T05:54:34.338Z,67.00
2019-04-16T05:57:01.901Z,66.90
2019-04-16T05:59:33.585Z,67.50
2019-04-16T06:02:04.352Z,67.10
2019-04-16T06:04:31.932Z,67.10
2019-04-16T06:07:02.902Z,66.70
2019-04-16T06:09:29.351Z,66.90
2019-04-16T06:11:57.800Z,66.50
2019-04-16T06:14:39.077Z,66.10
2019-04-16T06:17:38.087Z,66.10
2019-04-16T06:20:23.548Z,66.00
2019-04-16T06:23:16.476Z,66.20
2019-04-16T06:25:49.779Z,65.90
2019-04-16T06:28:36.694Z,64.90
2019-04-16T06:31:22.210Z,64.60
2019-04-16T06:34:07.388Z,64.50
2019-04-16T06:37:00.250Z,63.80
2019-04-16T06:40:00.693Z,64.20
2019-04-16T06:42:29.393Z,64.20
2019-04-16T06:44:58.466Z,63.80
2019-04-16T06:47:54.194Z,63.40
2019-04-16T06:50:40.664Z,63.30
2019-04-16T06:53:30.735Z,63.80
2019-04-16T06:56:20.231Z,63.30
2019-04-16T06:58:57.213Z,61.90
2019-04-16T07:01:54.932Z,62.90
2019-04-16T07:04:33.748Z,62.40
2019-04-16T07:07:21.816Z,61.90
2019-04-16T07:10:02.322Z,61.30
2019-04-16T07:12:37.997Z,61.80
2019-04-16T07:15:02.073Z,61.10
2019-04-16T07:17:33.513Z,60.80
2019-04-16T07:19:58.737Z,59.70
2019-04-16T07:22:26.273Z,60.80
2019-04-16T07:24:57.044Z,59.90
2019-04-16T07:27:26.109Z,59.80
2019-04-16T07:30:19.536Z,60.80
2019-04-16T07:33:03.310Z,59.40
2019-04-16T07:35:48.896Z,59.80
2019-04-16T07:38:29.703Z,61.00
2019-04-16T07:43:47.020Z,59.70
2019-04-16T07:44:22.201Z,58.60
2019-04-16T07:47:07.675Z,59.20
2019-04-16T07:50:01.483Z,58.90
2019-04-16T07:52:47.478Z,59.80
2019-04-16T07:55:37.326Z,59.60
2019-04-16T07:58:05.064Z,60.40
2019-04-16T08:00:32.851Z,59.70
2019-04-16T08:03:00.222Z,59.10
2019-04-16T08:05:28.129Z,58.60
2019-04-16T08:07:55.868Z,57.60
2019-04-16T08:10:23.375Z,57.60
2019-04-16T08:12:57.237Z,58.40
2019-04-16T08:15:23.777Z,57.20
2019-04-16T08:17:51.217Z,57.20
2019-04-16T08:20:20.941Z,56.90
2019-04-16T08:22:48.753Z,57.70
2019-04-16T08:25:21.012Z,59.40
2019-04-16T08:27:50.818Z,60.70
2019-04-16T08:30:17.714Z,58.80
2019-04-16T08:32:45.820Z,56.90
2019-04-16T08:35:14.448Z,56.50
2019-04-16T08:37:48.838Z,57.10
2019-04-16T08:40:12.176Z,56.60
2019-04-16T08:42:44.598Z,57.00
2019-04-16T08:45:09.987Z,58.00
2019-04-16T08:47:37.415Z,56.50
2019-04-16T08:50:05.265Z,57.20
2019-04-16T08:52:32.705Z,57.50
2019-04-16T08:55:00.020Z,57.30
2019-04-16T08:57:31.594Z,57.10
2019-04-16T08:59:56.693Z,56.60
2019-04-16T09:02:27.003Z,56.80
2019-04-16T09:04:53.816Z,55.70
2019-04-16T09:07:39.545Z,54.30
2019-04-16T09:10:17.478Z,54.60
2019-04-16T09:12:44.911Z,54.70
2019-04-16T09:15:09.566Z,55.10
2019-04-16T09:17:39.652Z,54.50
2019-04-16T09:20:18.623Z,54.00
2019-04-16T09:22:49.136Z,53.80
2019-04-16T09:25:37.491Z,54.30
2019-04-16T09:28:25.827Z,54.90
2019-04-16T09:31:05.610Z,53.70
2019-04-16T09:33:48.414Z,53.40
2019-04-16T09:36:24.829Z,54.00
2019-04-16T09:39:11.839Z,54.50
2019-04-16T09:41:41.999Z,54.90
2019-04-16T09:44:09.522Z,55.20
2019-04-16T09:46:52.508Z,54.20
2019-04-16T09:49:06.307Z,53.20
2019-04-16T09:51:33.655Z,52.00
2019-04-16T09:54:01.364Z,52.40
2019-04-16T09:56:29.985Z,52.40
2019-04-16T09:59:02.257Z,51.90
2019-04-16T10:01:38.627Z,51.20
2019-04-16T10:04:09.315Z,51.60
2019-04-16T10:06:36.861Z,51.60
2019-04-16T10:09:06.124Z,51.70
2019-04-16T10:11:36.487Z,51.30
2019-04-16T10:14:04.480Z,50.40
2019-04-16T10:16:31.807Z,49.30
2019-04-16T10:18:59.365Z,49.90
2019-04-16T10:21:29.117Z,49.90
2019-04-16T10:24:18.567Z,48.10
2019-04-16T10:26:49.304Z,48.40
2019-04-16T10:29:17.969Z,48.20
2019-04-16T10:31:45.800Z,47.60
2019-04-16T10:34:13.437Z,47.20
2019-04-16T10:36:41.495Z,44.80
2019-04-16T10:39:28.410Z,44.90
2019-04-16T10:42:21.315Z,42.30
2019-04-16T10:45:11.556Z,39.70
2019-04-16T10:48:00.637Z,36.30
2019-04-16T10:50:53.414Z,32.30
2019-04-16T10:53:40.971Z,30.90
2019-04-16T10:56:46.278Z,28.30
2019-04-16T10:59:32.053Z,27.80
2019-04-16T11:02:17.745Z,24.40
2019-04-16T11:05:04.675Z,23.50
2019-04-16T11:07:32.540Z,22.70
2019-04-16T11:10:00.393Z,21.80
2019-04-16T11:12:27.900Z,20.80
2019-04-16T11:14:55.425Z,21.10
2019-04-16T11:17:24.663Z,20.50
2019-04-16T11:19:54.227Z,19.60
2019-04-16T11:22:22.541Z,19.60
2019-04-16T11:24:50.181Z,18.80
2019-04-16T11:27:20.141Z,18.50
2019-04-16T11:29:47.518Z,19.10
2019-04-16T11:32:16.613Z,18.20
2019-04-16T11:34:44.165Z,18.10
2019-04-16T11:37:11.620Z,17.40
2019-04-16T11:39:39.158Z,17.10
2019-04-16T11:42:06.662Z,17.30
2019-04-16T11:44:34.141Z,16.70
2019-04-16T11:47:01.951Z,17.60
2019-04-16T11:49:29.449Z,16.80
2019-04-16T11:51:57.079Z,17.20
2019-04-16T11:54:24.646Z,16.80
2019-04-16T11:56:52.063Z,16.80
2019-04-16T11:59:19.607Z,15.90
2019-04-16T12:02:09.356Z,15.80
2019-04-16T12:05:08.339Z,16.30
2019-04-16T12:08:13.541Z,16.70
2019-04-16T12:11:18.878Z,16.70
2019-04-16T12:13:55.704Z,16.80
2019-04-16T12:16:35.684Z,17.70
2019-04-16T12:19:25.870Z,17.80
2019-04-16T12:22:27.902Z,18.00
2019-04-16T12:25:14.480Z,19.10
2019-04-16T12:28:01.899Z,19.20
2019-04-16T12:30:52.913Z,18.30
2019-04-16T12:33:42.401Z,18.70
2019-04-16T12:36:27.839Z,18.70
2019-04-16T12:39:20.992Z,17.70
2019-04-16T12:41:55.835Z,17.90
2019-04-16T12:44:50.735Z,17.30
2019-04-16T12:47:32.208Z,18.20
2019-04-16T12:50:08.042Z,17.00
2019-04-16T12:53:04.105Z,17.10
2019-04-16T12:55:49.679Z,17.20
2019-04-16T12:58:39.046Z,16.90
2019-04-16T13:01:19.829Z,16.40
2019-04-16T13:03:52.697Z,16.30
2019-04-16T13:06:31.516Z,15.30
2019-04-16T13:09:21.394Z,15.80
2019-04-16T13:12:01.974Z,16.60
2019-04-16T13:15:01.234Z,16.60
2019-04-16T13:17:51.794Z,17.40
2019-04-16T13:20:48.348Z,17.40
2019-04-16T13:23:35.274Z,16.60
2019-04-16T13:26:13.408Z,16.40
2019-04-16T13:28:41.423Z,16.20
2019-04-16T13:31:08.964Z,16.40
2019-04-16T13:33:36.674Z,17.10
2019-04-16T13:36:04.624Z,17.10
2019-04-16T13:38:34.435Z,16.20
2019-04-16T13:41:02.675Z,16.00
2019-04-16T13:43:36.817Z,16.60
2019-04-16T13:46:05.007Z,16.40
2019-04-16T13:48:42.540Z,17.00
2019-04-16T13:51:18.278Z,17.60
2019-04-16T13:54:04.110Z,16.50
2019-04-16T13:56:38.169Z,16.90
2019-04-16T13:59:37.218Z,16.70
2019-04-16T14:02:42.175Z,15.60
2019-04-16T14:05:10.995Z,14.80
2019-04-16T14:07:39.191Z,15.50
2019-04-16T14:10:06.942Z,14.60
2019-04-16T14:12:42.363Z,13.90
2019-04-16T14:15:06.847Z,14.50
2019-04-16T14:17:36.469Z,14.40
2019-04-16T14:20:05.342Z,14.00
2019-04-16T14:22:32.804Z,14.20
2019-04-16T14:25:00.134Z,15.80
2019-04-16T14:27:27.502Z,16.90
2019-04-16T14:29:58.930Z,17.40
2019-04-16T14:32:24.905Z,20.40
2019-04-16T14:34:54.941Z,22.50
2019-04-16T14:37:22.820Z,24.40
2019-04-16T14:39:55.625Z,26.20
2019-04-16T14:42:23.171Z,27.90
2019-04-16T14:44:54.589Z,29.90
2019-04-16T14:47:22.043Z,31.00
2019-04-16T14:49:50.885Z,32.40
2019-04-16T14:52:18.522Z,33.90
2019-04-16T14:54:51.651Z,34.90
2019-04-16T14:57:19.097Z,35.20
2019-04-16T15:00:06.020Z,36.10
2019-04-16T15:02:44.044Z,37.50
2019-04-16T15:05:29.394Z,38.10
2019-04-16T15:08:01.906Z,37.90
2019-04-16T15:10:48.641Z,38.10
2019-04-16T15:13:44.770Z,38.60
2019-04-16T15:16:30.408Z,38.80
2019-04-16T15:19:29.738Z,38.60
2019-04-16T15:22:15.542Z,38.80
2019-04-16T15:25:02.579Z,39.50
2019-04-16T15:27:44.943Z,40.30
2019-04-16T15:30:38.192Z,39.80
2019-04-16T15:33:35.801Z,39.90
2019-04-16T15:36:12.222Z,39.80
2019-04-16T15:38:51.878Z,39.70
2019-04-16T15:41:53.815Z,39.90
2019-04-16T15:44:32.175Z,39.40
2019-04-16T15:47:17.928Z,40.10
2019-04-16T15:49:55.683Z,40.10
2019-04-16T15:52:38.178Z,39.80
2019-04-16T15:55:24.508Z,40.40
2019-04-16T15:58:13.279Z,40.90
2019-04-16T16:01:07.451Z,40.70
2019-04-16T16:03:57.160Z,40.90
2019-04-16T16:06:26.363Z,40.80
2019-04-16T16:09:16.185Z,41.20
2019-04-16T16:12:10.621Z,40.20
2019-04-16T16:14:39.088Z,41.20
2019-04-16T16:17:07.016Z,41.20
2019-04-16T16:19:34.766Z,41.80
2019-04-16T16:22:02.161Z,42.40
2019-04-16T16:24:29.641Z,42.30
2019-04-16T16:26:57.129Z,42.70
2019-04-16T16:29:24.520Z,44.00
2019-04-16T16:31:52.180Z,44.00
2019-04-16T16:34:20.090Z,44.30
2019-04-16T16:36:47.573Z,44.50
2019-04-16T16:39:15.348Z,44.40
2019-04-16T16:41:46.320Z,44.50
2019-04-16T16:44:14.560Z,44.10
2019-04-16T16:47:01.975Z,45.20
2019-04-16T16:49:30.274Z,45.20
2019-04-16T16:52:16.257Z,45.40
2019-04-16T16:54:44.013Z,44.80
2019-04-16T16:57:13.893Z,44.30
2019-04-16T16:59:55.032Z,44.80
2019-04-16T17:02:39.242Z,46.40
2019-04-16T17:05:09.742Z,47.10
2019-04-16T17:07:37.277Z,47.00
2019-04-16T17:10:05.102Z,46.40
2019-04-16T17:12:32.698Z,46.70
2019-04-16T17:15:00.220Z,47.00
2019-04-16T17:17:28.449Z,47.30
2019-04-16T17:19:56.059Z,46.20
2019-04-16T17:22:23.858Z,44.90
2019-04-16T17:24:51.389Z,44.90
2019-04-16T17:27:19.989Z,45.90
2019-04-16T17:29:49.994Z,46.00
2019-04-16T17:32:16.960Z,45.80
2019-04-16T17:34:44.410Z,45.60
2019-04-16T17:37:11.919Z,45.20
2019-04-16T17:39:43.559Z,45.80
2019-04-16T17:42:11.475Z,46.60
2019-04-16T17:45:13.882Z,47.20
2019-04-16T17:48:09.774Z,47.30
2019-04-16T17:50:55.493Z,47.80
2019-04-16T17:53:41.192Z,47.60
2019-04-16T17:56:27.029Z,47.40
2019-04-16T17:59:14.384Z,47.20
2019-04-16T18:02:20.568Z,47.00
2019-04-16T18:05:13.641Z,47.70
2019-04-16T18:07:59.614Z,47.90
2019-04-16T18:10:50.960Z,48.20
2019-04-16T18:13:37.981Z,49.20
2019-04-16T18:16:31.200Z,49.00
2019-04-16T18:19:04.751Z,49.10
2019-04-16T18:21:41.441Z,50.10
2019-04-16T18:24:36.655Z,50.80
2019-04-16T18:27:30.010Z,51.20
2019-04-16T18:30:17.646Z,51.00
2019-04-16T18:33:07.234Z,49.90
2019-04-16T18:35:38.338Z,49.90
2019-04-16T18:38:24.305Z,50.60
2019-04-16T18:41:15.605Z,50.60
2019-04-16T18:44:12.128Z,51.80
2019-04-16T18:47:10.822Z,50.10
2019-04-16T18:49:38.348Z,50.10
2019-04-16T18:52:06.957Z,50.50
2019-04-16T18:54:34.804Z,50.60
2019-04-16T18:57:02.846Z,51.10
2019-04-16T18:59:30.777Z,51.70
2019-04-16T19:02:02.336Z,51.60
2019-04-16T19:04:30.579Z,51.90
2019-04-16T19:06:58.617Z,52.30
2019-04-16T19:09:26.422Z,52.60
2019-04-16T19:11:54.529Z,52.50
2019-04-16T19:14:22.485Z,52.80
2019-04-16T19:16:50.808Z,53.00
2019-04-16T19:19:21.867Z,53.20
2019-04-16T19:21:51.324Z,52.70
2019-04-16T19:24:18.316Z,53.20
2019-04-16T19:26:46.011Z,54.00
2019-04-16T19:29:14.891Z,55.10
2019-04-16T19:31:42.664Z,55.00
2019-04-16T19:34:10.722Z,55.20
2019-04-16T19:36:39.057Z,55.20
2019-04-16T19:39:10.160Z,55.30
2019-04-16T19:41:36.996Z,56.50
2019-04-16T19:44:07.188Z,57.60
2019-04-16T19:46:34.254Z,57.60
2019-04-16T19:49:04.710Z,57.60
2019-04-16T19:51:32.262Z,57.70
2019-04-16T19:53:59.821Z,57.20
2019-04-16T19:56:27.451Z,56.50
2019-04-16T19:58:55.250Z,56.40
2019-04-16T20:01:24.010Z,56.90
2019-04-16T20:03:53.368Z,56.50
2019-04-16T20:06:25.352Z,55.60
2019-04-16T20:08:51.916Z,56.00
2019-04-16T20:11:21.331Z,56.20
2019-04-16T20:13:49.967Z,56.10
2019-04-16T20:16:18.767Z,55.80
2019-04-16T20:18:51.279Z,55.90
2019-04-16T20:21:18.084Z,56.10
2019-04-16T20:23:46.381Z,56.00
2019-04-16T20:26:15.198Z,56.30
2019-04-16T20:28:45.343Z,56.60
2019-04-16T20:31:14.214Z,56.70
2019-04-16T20:33:42.566Z,56.50
2019-04-16T20:36:11.033Z,56.70
2019-04-16T20:38:39.489Z,56.60
2019-04-16T20:41:07.414Z,56.70
2019-04-16T20:43:35.343Z,56.80
2019-04-16T20:46:03.435Z,56.60
2019-04-16T20:48:31.103Z,56.50
2019-04-16T20:50:59.829Z,56.70
2019-04-16T20:53:28.189Z,57.20
2019-04-16T20:55:55.784Z,57.70
2019-04-16T20:58:23.450Z,57.50
2019-04-16T21:00:52.480Z,58.00
2019-04-16T21:03:22.451Z,57.40
2019-04-16T21:05:57.767Z,57.60
2019-04-16T21:08:24.245Z,58.40
2019-04-16T21:10:47.944Z,58.80
2019-04-16T21:13:16.241Z,58.80
2019-04-16T21:15:44.247Z,59.50
2019-04-16T21:18:12.245Z,59.60
2019-04-16T21:20:39.767Z,59.50
2019-04-16T21:23:07.258Z,59.60
2019-04-16T21:25:34.649Z,59.60
2019-04-16T21:28:15.863Z,59.70
2019-04-16T21:30:44.291Z,60.80
2019-04-16T21:33:39.950Z,61.30
2019-04-16T21:36:08.087Z,60.90
2019-04-16T21:38:47.062Z,60.80
2019-04-16T21:41:14.475Z,61.00
2019-04-16T21:43:42.185Z,60.20
2019-04-16T21:46:10.039Z,59.40
2019-04-16T21:48:37.913Z,59.20
2019-04-16T21:51:05.796Z,59.00
2019-04-16T21:53:33.228Z,59.50
2019-04-16T21:56:06.441Z,59.50
2019-04-16T21:58:30.256Z,59.60
2019-04-16T22:01:05.102Z,58.90
2019-04-16T22:03:33.190Z,58.90
2019-04-16T22:06:00.622Z,59.20
2019-04-16T22:08:29.752Z,59.80
2019-04-16T22:10:57.694Z,59.90
2019-04-16T22:13:25.140Z,60.00
2019-04-16T22:15:53.740Z,59.90
2019-04-16T22:18:21.764Z,60.70
2019-04-16T22:20:49.082Z,61.00
2019-04-16T22:23:19.357Z,60.60
2019-04-16T22:25:45.789Z,61.00
2019-04-16T22:28:13.171Z,61.00
2019-04-16T22:30:40.562Z,61.10
2019-04-16T22:33:07.977Z,60.20
2019-04-16T22:35:35.348Z,59.40
2019-04-16T22:38:02.770Z,60.40
2019-04-16T22:40:58.554Z,61.20
2019-04-16T22:43:48.574Z,61.40
2019-04-16T22:46:25.642Z,61.60
2019-04-16T22:48:59.568Z,61.70
2019-04-16T22:51:26.932Z,62.20
2019-04-16T22:53:54.381Z,62.60
2019-04-16T22:56:28.170Z,61.20
2019-04-16T22:58:53.994Z,60.90
2019-04-16T23:01:22.695Z,60.70
2019-04-16T23:03:53.355Z,61.00
2019-04-16T23:06:19.372Z,61.20
2019-04-16T23:08:46.735Z,61.40
2019-04-16T23:11:14.042Z,61.50
2019-04-16T23:13:41.415Z,61.80
2019-04-16T23:16:08.830Z,61.90
2019-04-16T23:18:36.177Z,61.60
2019-04-16T23:21:08.621Z,62.20
2019-04-16T23:23:32.661Z,62.20
2019-04-16T23:26:00.922Z,62.40
2019-04-16T23:28:28.546Z,62.40
2019-04-16T23:30:55.978Z,62.40
2019-04-16T23:33:23.475Z,63.10
2019-04-16T23:35:51.239Z,63.10
2019-04-16T23:38:18.622Z,63.00
2019-04-16T23:40:46.078Z,63.10
2019-04-16T23:43:33.063Z,62.80
2019-04-16T23:46:18.953Z,62.60
2019-04-16T23:48:53.160Z,63.60
2019-04-16T23:51:29.648Z,63.90
2019-04-16T23:54:07.981Z,63.50
2019-04-16T23:56:55.625Z,63.70
2019-04-16T23:59:51.580Z,64.20
